createdAt,value
2017-09-27T06:18:56.389Z,504
2017-09-27T06:19:28.643Z,516
2017-09-27T06:20:00.738Z,532
2017-09-27T06:20:32.939Z,548
2017-09-27T06:21:05.115Z,564
2017-09-27T06:21:37.229Z,580
2017-09-27T06:22:09.303Z,588
2017-09-27T06:22:41.509Z,596
2017-09-27T06:23:13.625Z,600
2017-09-27T06:23:45.713Z,604
2017-09-27T06:24:17.900Z,608
2017-09-27T06:24:50.068Z,596
2017-09-27T06:25:22.197Z,592
2017-09-27T06:25:54.343Z,592
2017-09-27T06:26:26.395Z,600
2017-09-27T06:26:58.496Z,604
2017-09-27T06:27:30.592Z,604
2017-09-27T06:28:02.664Z,604
2017-09-27T06:28:34.826Z,600
2017-09-27T06:29:06.972Z,604
2017-09-27T06:29:39.169Z,596
2017-09-27T06:30:11.338Z,600
2017-09-27T06:30:43.417Z,608
2017-09-27T06:31:15.543Z,612
2017-09-27T06:31:48.569Z,624
2017-09-27T06:32:20.695Z,628
2017-09-27T06:32:52.814Z,636
2017-09-27T06:33:24.864Z,640
2017-09-27T06:33:56.948Z,648
2017-09-27T06:34:29.004Z,660
2017-09-27T06:35:01.046Z,664
2017-09-27T06:35:33.149Z,668
2017-09-27T06:36:05.309Z,676
2017-09-27T06:36:37.549Z,684
2017-09-27T06:37:09.660Z,692
2017-09-27T06:37:41.917Z,700
2017-09-27T06:38:13.990Z,708
2017-09-27T06:38:46.091Z,716
2017-09-27T06:39:18.117Z,720
2017-09-27T06:39:50.206Z,736
2017-09-27T06:40:22.370Z,748
2017-09-27T06:40:54.467Z,764
2017-09-27T06:41:26.565Z,780
2017-09-27T06:41:58.620Z,800
2017-09-27T06:42:30.657Z,820
2017-09-27T06:43:02.738Z,832
2017-09-27T06:43:34.959Z,844
2017-09-27T06:44:07.084Z,848
2017-09-27T06:44:39.169Z,848
2017-09-27T06:45:11.293Z,848
2017-09-27T06:45:43.427Z,852
2017-09-27T06:46:15.551Z,856
2017-09-27T06:46:47.695Z,868
2017-09-27T06:47:19.802Z,884
2017-09-27T06:47:51.876Z,908
2017-09-27T06:48:23.973Z,924
2017-09-27T06:48:56.159Z,940
2017-09-27T06:49:28.217Z,944
2017-09-27T06:50:00.396Z,956
2017-09-27T06:50:32.526Z,968
2017-09-27T06:51:04.741Z,976
2017-09-27T06:51:36.818Z,992
2017-09-27T06:52:08.928Z,1000
2017-09-27T06:52:41.150Z,1004
2017-09-27T06:53:13.268Z,996
2017-09-27T06:53:45.403Z,1004
2017-09-27T06:54:17.472Z,1016
2017-09-27T06:54:49.594Z,1024
2017-09-27T06:55:21.802Z,1040
2017-09-27T06:55:53.900Z,1060
2017-09-27T06:56:26.064Z,1076
2017-09-27T06:56:58.162Z,1092
2017-09-27T06:57:30.824Z,1112
2017-09-27T06:58:02.988Z,1136
2017-09-27T06:58:35.741Z,1168
2017-09-27T06:59:07.900Z,1228
2017-09-27T06:59:40.004Z,1352
2017-09-27T07:00:12.216Z,1552
2017-09-27T07:00:45.316Z,1576
2017-09-27T07:01:17.500Z,1584
2017-09-27T07:01:49.646Z,1584
2017-09-27T07:02:21.931Z,1700
2017-09-27T07:02:54.032Z,1708
2017-09-27T07:03:26.199Z,1640
2017-09-27T07:03:58.316Z,1560
2017-09-27T07:04:30.453Z,1480
2017-09-27T07:05:02.640Z,1352
2017-09-27T07:05:34.790Z,1252
2017-09-27T07:06:06.938Z,1216
2017-09-27T07:06:39.049Z,1212
2017-09-27T07:07:11.208Z,1200
2017-09-27T07:07:43.303Z,1196
2017-09-27T07:08:15.537Z,1200
2017-09-27T07:08:47.632Z,1200
2017-09-27T07:09:19.749Z,1168
2017-09-27T07:09:51.878Z,1100
2017-09-27T07:10:24.054Z,1064
2017-09-27T07:10:56.289Z,1068
2017-09-27T07:11:28.546Z,1076
2017-09-27T07:12:00.644Z,1072
2017-09-27T07:12:32.706Z,1088
2017-09-27T07:13:04.749Z,1072
2017-09-27T07:13:36.903Z,1104
2017-09-27T07:14:09.089Z,1108
2017-09-27T07:14:41.274Z,1096
2017-09-27T07:15:13.406Z,1088
2017-09-27T07:15:45.492Z,1152
2017-09-27T07:16:17.631Z,1220
2017-09-27T07:16:49.766Z,1248
2017-09-27T07:17:21.824Z,1292
2017-09-27T07:17:53.910Z,1308
2017-09-27T07:18:26.087Z,1352
2017-09-27T07:18:58.286Z,1380
2017-09-27T07:19:30.457Z,1332
2017-09-27T07:20:02.568Z,1332
2017-09-27T07:20:34.811Z,1404
2017-09-27T07:21:07.765Z,1428
2017-09-27T07:21:39.972Z,1372
2017-09-27T07:22:12.020Z,1372
2017-09-27T07:22:44.499Z,1396
2017-09-27T07:23:17.014Z,1332
2017-09-27T07:23:49.075Z,1392
2017-09-27T07:24:21.222Z,1432
2017-09-27T07:24:53.415Z,1400
2017-09-27T07:25:25.492Z,1344
2017-09-27T07:25:57.619Z,1420
2017-09-27T07:26:29.721Z,1532
2017-09-27T07:27:01.848Z,1572
2017-09-27T07:27:34.040Z,1604
2017-09-27T07:28:06.247Z,1632
2017-09-27T07:28:38.415Z,1660
2017-09-27T07:29:10.519Z,1620
2017-09-27T07:29:42.601Z,1616
2017-09-27T07:30:14.729Z,1668
2017-09-27T07:30:46.788Z,1672
2017-09-27T07:31:19.033Z,1684
2017-09-27T07:31:51.193Z,1696
2017-09-27T07:32:23.318Z,1720
2017-09-27T07:32:55.469Z,1740
2017-09-27T07:33:27.591Z,1720
2017-09-27T07:33:59.748Z,1708
2017-09-27T07:34:32.029Z,1688
2017-09-27T07:35:04.269Z,1660
2017-09-27T07:35:36.385Z,1644
2017-09-27T07:36:08.475Z,1600
2017-09-27T07:36:40.611Z,1632
2017-09-27T07:37:12.737Z,1724
2017-09-27T07:37:44.937Z,1756
2017-09-27T07:38:17.186Z,1816
2017-09-27T07:38:49.288Z,1864
2017-09-27T07:39:21.384Z,1888
2017-09-27T07:39:53.528Z,1880
2017-09-27T07:40:25.685Z,1896
2017-09-27T07:40:57.923Z,1920
2017-09-27T07:41:30.311Z,1920
2017-09-27T07:42:02.420Z,1948
2017-09-27T07:42:34.503Z,1928
2017-09-27T07:43:06.788Z,1936
2017-09-27T07:43:39.207Z,1900
2017-09-27T07:44:11.334Z,1856
2017-09-27T07:44:43.428Z,1912
2017-09-27T07:45:15.552Z,1816
2017-09-27T07:45:47.736Z,1888
2017-09-27T07:46:19.881Z,1916
2017-09-27T07:46:51.928Z,1920
2017-09-27T07:47:24.080Z,1896
2017-09-27T07:47:56.256Z,1760
2017-09-27T07:48:29.032Z,1688
2017-09-27T07:49:01.198Z,1740
2017-09-27T07:49:33.327Z,1724
2017-09-27T07:50:05.528Z,1744
2017-09-27T07:50:37.663Z,1676
2017-09-27T07:51:09.885Z,1652
2017-09-27T07:51:41.992Z,1716
2017-09-27T07:52:14.077Z,1784
2017-09-27T07:52:46.917Z,1676
2017-09-27T07:53:19.033Z,1676
2017-09-27T07:53:51.205Z,1752
2017-09-27T07:54:23.426Z,1756
2017-09-27T07:54:55.611Z,1736
2017-09-27T07:55:27.711Z,1732
2017-09-27T07:55:59.954Z,1860
2017-09-27T07:56:32.034Z,1924
2017-09-27T07:57:04.145Z,1976
2017-09-27T07:57:36.321Z,1928
2017-09-27T07:58:08.428Z,1876
2017-09-27T07:58:40.630Z,1952
2017-09-27T07:59:12.724Z,1964
2017-09-27T07:59:44.816Z,1936
2017-09-27T08:00:16.931Z,1936
2017-09-27T08:00:49.153Z,1908
2017-09-27T08:01:21.261Z,1920
2017-09-27T08:01:53.429Z,1932
2017-09-27T08:02:25.487Z,1864
2017-09-27T08:02:57.825Z,1840
2017-09-27T08:03:29.973Z,1848
2017-09-27T08:04:02.029Z,1796
2017-09-27T08:04:34.115Z,1820
2017-09-27T08:05:06.252Z,1916
2017-09-27T08:05:38.358Z,2016
2017-09-27T08:06:10.550Z,2064
2017-09-27T08:06:43.691Z,2060
2017-09-27T08:07:15.813Z,2048
2017-09-27T08:07:47.978Z,2036
2017-09-27T08:08:20.136Z,2072
2017-09-27T08:08:52.286Z,2012
2017-09-27T08:09:24.469Z,1936
2017-09-27T08:09:56.679Z,1896
2017-09-27T08:10:29.734Z,1908
2017-09-27T08:11:01.901Z,1944
2017-09-27T08:11:34.003Z,1888
2017-09-27T08:12:06.065Z,1960
2017-09-27T08:12:38.213Z,2100
2017-09-27T08:13:10.338Z,2140
2017-09-27T08:13:42.494Z,2092
2017-09-27T08:14:14.553Z,2048
2017-09-27T08:14:46.657Z,2016
2017-09-27T08:15:18.743Z,2088
2017-09-27T08:15:50.879Z,2176
2017-09-27T08:16:23.100Z,2244
2017-09-27T08:16:55.260Z,2360
2017-09-27T08:17:27.409Z,2436
2017-09-27T08:17:59.602Z,2628
2017-09-27T08:18:31.714Z,2724
2017-09-27T08:19:03.888Z,2828
2017-09-27T08:19:36.031Z,3012
2017-09-27T08:20:08.208Z,3116
2017-09-27T08:20:40.308Z,3224
2017-09-27T08:21:12.384Z,3292
2017-09-27T08:21:44.610Z,3216
2017-09-27T08:22:16.677Z,3040
2017-09-27T08:22:48.840Z,3016
2017-09-27T08:23:21.020Z,3060
2017-09-27T08:23:53.146Z,3024
2017-09-27T08:24:25.192Z,2952
2017-09-27T08:24:57.326Z,2852
2017-09-27T08:25:29.402Z,2744
2017-09-27T08:26:01.880Z,2756
2017-09-27T08:26:34.003Z,2736
2017-09-27T08:27:06.097Z,2688
2017-09-27T08:27:38.227Z,2740
2017-09-27T08:28:10.272Z,2684
2017-09-27T08:28:42.327Z,2616
2017-09-27T08:29:15.139Z,2592
2017-09-27T08:29:47.205Z,2456
2017-09-27T08:30:19.367Z,2460
2017-09-27T08:30:51.525Z,2548
2017-09-27T08:31:23.661Z,2472
2017-09-27T08:31:55.787Z,2344
2017-09-27T08:32:27.981Z,2252
2017-09-27T08:33:00.051Z,2100
2017-09-27T08:33:32.177Z,2196
2017-09-27T08:34:04.271Z,2308
2017-09-27T08:34:36.450Z,2372
2017-09-27T08:35:08.579Z,2308
2017-09-27T08:35:40.758Z,2092
2017-09-27T08:36:12.955Z,2072
2017-09-27T08:36:45.055Z,2072
2017-09-27T08:37:17.174Z,2232
2017-09-27T08:37:49.431Z,2596
2017-09-27T08:38:21.651Z,2760
2017-09-27T08:38:53.767Z,2972
2017-09-27T08:39:25.885Z,3088
2017-09-27T08:39:57.942Z,3040
2017-09-27T08:40:30.088Z,3036
2017-09-27T08:41:02.168Z,3092
2017-09-27T08:41:34.313Z,3228
2017-09-27T08:42:06.405Z,3268
2017-09-27T08:42:38.689Z,3076
2017-09-27T08:43:10.895Z,2988
2017-09-27T08:43:42.994Z,3180
2017-09-27T08:44:15.162Z,3308
2017-09-27T08:44:47.319Z,3180
2017-09-27T08:45:19.503Z,3116
2017-09-27T08:45:51.695Z,3240
2017-09-27T08:46:23.877Z,3416
2017-09-27T08:46:56.011Z,3540
2017-09-27T08:47:28.131Z,3468
2017-09-27T08:48:00.253Z,3232
2017-09-27T08:48:32.359Z,3232
2017-09-27T08:49:04.507Z,3296
2017-09-27T08:49:36.667Z,3276
2017-09-27T08:50:08.769Z,3272
2017-09-27T08:50:40.885Z,3288
2017-09-27T08:51:13.063Z,3144
2017-09-27T08:51:45.298Z,2956
2017-09-27T08:52:17.486Z,3032
2017-09-27T08:52:50.334Z,3200
2017-09-27T08:53:22.528Z,3248
2017-09-27T08:53:54.589Z,3104
2017-09-27T08:54:26.679Z,2940
2017-09-27T08:54:58.831Z,2808
2017-09-27T08:55:30.964Z,2696
2017-09-27T08:56:03.223Z,2728
2017-09-27T08:56:35.318Z,2804
2017-09-27T08:57:07.574Z,2788
2017-09-27T08:57:39.792Z,2788
2017-09-27T08:58:11.930Z,2868
2017-09-27T08:58:44.105Z,2884
2017-09-27T08:59:16.194Z,2928
2017-09-27T08:59:48.315Z,2820
2017-09-27T09:00:20.350Z,2604
2017-09-27T09:00:52.562Z,2348
2017-09-27T09:01:24.744Z,2368
2017-09-27T09:01:56.905Z,2392
2017-09-27T09:02:29.106Z,2288
2017-09-27T09:03:01.160Z,2248
2017-09-27T09:03:33.333Z,2356
2017-09-27T09:04:05.455Z,2296
2017-09-27T09:04:37.694Z,2388
2017-09-27T09:05:09.862Z,2424
2017-09-27T09:05:42.060Z,2480
2017-09-27T09:06:14.152Z,2436
2017-09-27T09:06:46.307Z,2272
2017-09-27T09:07:18.415Z,2144
2017-09-27T09:07:50.573Z,2132
2017-09-27T09:08:22.759Z,2204
2017-09-27T09:08:54.941Z,2212
2017-09-27T09:09:27.072Z,2144
2017-09-27T09:09:59.193Z,2092
2017-09-27T09:10:31.292Z,2064
2017-09-27T09:11:03.457Z,2124
2017-09-27T09:11:35.533Z,2184
2017-09-27T09:12:07.704Z,2264
2017-09-27T09:12:39.897Z,2328
2017-09-27T09:13:12.067Z,2452
2017-09-27T09:13:44.344Z,2604
2017-09-27T09:14:16.476Z,2636
2017-09-27T09:14:48.579Z,2844
2017-09-27T09:15:20.678Z,3052
2017-09-27T09:15:52.833Z,3280
2017-09-27T09:16:24.917Z,3268
2017-09-27T09:16:57.080Z,3492
2017-09-27T09:17:29.229Z,3404
2017-09-27T09:18:01.420Z,3260
2017-09-27T09:18:33.591Z,3120
2017-09-27T09:19:05.771Z,3020
2017-09-27T09:19:37.897Z,2968
2017-09-27T09:20:10.085Z,2924
2017-09-27T09:20:42.240Z,2900
2017-09-27T09:21:14.573Z,2880
2017-09-27T09:21:46.666Z,2816
2017-09-27T09:22:18.838Z,2816
2017-09-27T09:22:50.971Z,2896
2017-09-27T09:23:23.190Z,2900
2017-09-27T09:23:55.369Z,2856
2017-09-27T09:24:27.531Z,2832
2017-09-27T09:24:59.676Z,2780
2017-09-27T09:25:31.831Z,2732
2017-09-27T09:26:03.890Z,2728
2017-09-27T09:26:35.968Z,2740
2017-09-27T09:27:08.090Z,2824
2017-09-27T09:27:40.266Z,2972
2017-09-27T09:28:12.373Z,3056
2017-09-27T09:28:44.473Z,3052
2017-09-27T09:29:16.531Z,3060
2017-09-27T09:29:48.653Z,3128
2017-09-27T09:30:20.692Z,3204
2017-09-27T09:30:52.832Z,3224
2017-09-27T09:31:24.972Z,3140
2017-09-27T09:31:57.073Z,3044
2017-09-27T09:32:29.270Z,2928
2017-09-27T09:33:01.401Z,2812
2017-09-27T09:33:33.633Z,2744
2017-09-27T09:34:05.783Z,2732
2017-09-27T09:34:37.949Z,2760
2017-09-27T09:35:10.091Z,2780
2017-09-27T09:35:43.273Z,2844
2017-09-27T09:36:15.772Z,2936
2017-09-27T09:36:47.917Z,2952
2017-09-27T09:37:20.046Z,2904
2017-09-27T09:37:52.150Z,2816
2017-09-27T09:38:24.239Z,2720
2017-09-27T09:38:56.397Z,2616
2017-09-27T09:39:28.635Z,2568
2017-09-27T09:40:00.949Z,2588
2017-09-27T09:40:33.079Z,2596
2017-09-27T09:41:05.209Z,2652
2017-09-27T09:41:37.424Z,2780
2017-09-27T09:42:09.624Z,2920
2017-09-27T09:42:41.786Z,3084
2017-09-27T09:43:13.902Z,3240
2017-09-27T09:43:46.009Z,3372
2017-09-27T09:44:18.197Z,3512
2017-09-27T09:44:50.448Z,3612
2017-09-27T09:45:22.663Z,3656
2017-09-27T09:45:54.897Z,3744
2017-09-27T09:46:27.095Z,3896
2017-09-27T09:46:59.219Z,4020
2017-09-27T09:47:31.271Z,4044
2017-09-27T09:48:03.352Z,3980
2017-09-27T09:48:35.599Z,3920
2017-09-27T09:49:07.763Z,4104
2017-09-27T09:49:39.902Z,4040
2017-09-27T09:50:11.996Z,4412
2017-09-27T09:50:44.145Z,4864
2017-09-27T09:51:16.173Z,4620
2017-09-27T09:51:48.273Z,4684
2017-09-27T09:52:20.894Z,5112
2017-09-27T09:52:53.072Z,5072
2017-09-27T09:53:25.242Z,4516
2017-09-27T09:53:57.399Z,4396
2017-09-27T09:54:29.515Z,4268
2017-09-27T09:55:01.682Z,3988
2017-09-27T09:55:33.831Z,3684
2017-09-27T09:56:06.013Z,3432
2017-09-27T09:56:38.300Z,3284
2017-09-27T09:57:10.437Z,3144
2017-09-27T09:57:42.534Z,3076
2017-09-27T09:58:14.703Z,3072
2017-09-27T09:58:46.857Z,3064
2017-09-27T09:59:19.078Z,2960
2017-09-27T09:59:51.270Z,2856
2017-09-27T10:00:23.457Z,2848
2017-09-27T10:00:56.601Z,2924
2017-09-27T10:01:30.548Z,2960
2017-09-27T10:02:02.773Z,2916
2017-09-27T10:02:38.099Z,2868
2017-09-27T10:03:12.465Z,2852
2017-09-27T10:03:46.758Z,2892
2017-09-27T10:04:18.948Z,2964
2017-09-27T10:04:51.150Z,2952
2017-09-27T10:05:23.309Z,2888
2017-09-27T10:05:55.824Z,2840
2017-09-27T10:06:27.912Z,2844
2017-09-27T10:06:59.999Z,2860
2017-09-27T10:07:32.121Z,2916
2017-09-27T10:08:04.315Z,2928
2017-09-27T10:08:36.458Z,2916
2017-09-27T10:09:10.120Z,2860
2017-09-27T10:09:44.679Z,2776
2017-09-27T10:10:18.394Z,2660
2017-09-27T10:10:52.442Z,2484
2017-09-27T10:11:26.249Z,2384
2017-09-27T10:12:00.506Z,2416
2017-09-27T10:12:35.297Z,2476
2017-09-27T10:13:09.863Z,2480
2017-09-27T10:13:43.556Z,2444
2017-09-27T10:14:17.541Z,2540
2017-09-27T10:14:52.554Z,2788
2017-09-27T10:15:26.183Z,3176
2017-09-27T10:16:01.349Z,3436
2017-09-27T10:16:36.470Z,3500
2017-09-27T10:17:10.477Z,3516
2017-09-27T10:17:44.234Z,3620
2017-09-27T10:18:17.437Z,3672
2017-09-27T10:18:50.723Z,3660
2017-09-27T10:19:23.174Z,3660
2017-09-27T10:19:55.337Z,3712
2017-09-27T10:20:27.448Z,3708
2017-09-27T10:20:59.529Z,3704
2017-09-27T10:21:31.727Z,3680
2017-09-27T10:22:03.946Z,3584
2017-09-27T10:22:36.101Z,3772
2017-09-27T10:23:08.284Z,4212
2017-09-27T10:23:40.475Z,3992
2017-09-27T10:24:12.530Z,4188
2017-09-27T10:24:44.568Z,4448
2017-09-27T10:25:16.733Z,4584
2017-09-27T10:25:48.924Z,4660
2017-09-27T10:26:21.100Z,4772
2017-09-27T10:26:53.321Z,4828
2017-09-27T10:27:25.516Z,5448
2017-09-27T10:27:57.692Z,4900
2017-09-27T10:28:29.894Z,5072
2017-09-27T10:29:02.091Z,5212
2017-09-27T10:29:34.331Z,6068
2017-09-27T10:30:06.514Z,5692
2017-09-27T10:30:38.641Z,5028
2017-09-27T10:31:10.747Z,5032
2017-09-27T10:31:42.981Z,5208
2017-09-27T10:32:15.139Z,5064
2017-09-27T10:32:47.329Z,5960
2017-09-27T10:33:19.437Z,6440
2017-09-27T10:33:51.545Z,5408
2017-09-27T10:34:24.315Z,5344
2017-09-27T10:34:58.916Z,5564
2017-09-27T10:35:31.211Z,6392
2017-09-27T10:36:03.542Z,6064
2017-09-27T10:36:35.832Z,5204
2017-09-27T10:37:08.426Z,5016
2017-09-27T10:37:41.287Z,4700
2017-09-27T10:38:13.656Z,4624
2017-09-27T10:38:45.911Z,4724
2017-09-27T10:39:18.355Z,5448
2017-09-27T10:39:50.565Z,5552
2017-09-27T10:40:22.764Z,5780
2017-09-27T10:40:54.990Z,6552
2017-09-27T10:41:27.214Z,7228
2017-09-27T10:41:59.386Z,7152
2017-09-27T10:42:31.731Z,6832
2017-09-27T10:43:03.974Z,6536
2017-09-27T10:43:36.202Z,5056
2017-09-27T10:44:08.445Z,5524
2017-09-27T10:44:40.611Z,5124
2017-09-27T10:45:12.807Z,5644
2017-09-27T10:45:45.007Z,4784
2017-09-27T10:46:17.385Z,5420
2017-09-27T10:46:49.678Z,5776
2017-09-27T10:47:22.525Z,5988
2017-09-27T10:47:54.674Z,6308
2017-09-27T10:48:27.089Z,6676
2017-09-27T10:48:59.371Z,6864
2017-09-27T10:49:33.640Z,6948
2017-09-27T10:50:08.188Z,6520
2017-09-27T10:50:40.656Z,6588
2017-09-27T10:51:12.809Z,6228
2017-09-27T10:51:45.083Z,6032
2017-09-27T10:52:17.729Z,5916
2017-09-27T10:52:49.838Z,5772
2017-09-27T10:53:21.930Z,6404
2017-09-27T10:53:54.135Z,6504
2017-09-27T10:54:26.743Z,7336
2017-09-27T10:54:58.868Z,7016
2017-09-27T10:55:31.222Z,7116
2017-09-27T10:56:03.439Z,6896
2017-09-27T10:56:35.754Z,6820
2017-09-27T10:57:07.974Z,6756
2017-09-27T10:57:40.202Z,7084
2017-09-27T10:58:12.347Z,6600
2017-09-27T10:58:44.629Z,7020
2017-09-27T10:59:16.790Z,7308
2017-09-27T10:59:49.290Z,6808
2017-09-27T11:00:22.419Z,6704
2017-09-27T11:00:54.731Z,6428
2017-09-27T11:01:27.016Z,6248
2017-09-27T11:01:59.270Z,6000
2017-09-27T11:02:31.667Z,5500
2017-09-27T11:03:03.804Z,4916
2017-09-27T11:03:35.931Z,4584
2017-09-27T11:04:08.187Z,4592
2017-09-27T11:04:40.343Z,4712
2017-09-27T11:05:12.625Z,4816
2017-09-27T11:05:44.794Z,4648
2017-09-27T11:06:17.214Z,4548
2017-09-27T11:06:49.586Z,4416
2017-09-27T11:07:22.089Z,4332
2017-09-27T11:07:54.424Z,4236
2017-09-27T11:08:27.767Z,4136
2017-09-27T11:09:00.017Z,4132
2017-09-27T11:09:32.242Z,4224
2017-09-27T11:10:04.387Z,4384
2017-09-27T11:10:36.619Z,4528
2017-09-27T11:11:09.142Z,4612
2017-09-27T11:11:41.413Z,4736
2017-09-27T11:12:13.634Z,4912
2017-09-27T11:12:45.946Z,5192
2017-09-27T11:13:18.111Z,5944
2017-09-27T11:13:51.247Z,5532
2017-09-27T11:14:23.471Z,5400
2017-09-27T11:14:55.669Z,5344
2017-09-27T11:15:27.801Z,5256
2017-09-27T11:15:59.964Z,5352
2017-09-27T11:16:32.099Z,5636
2017-09-27T11:17:04.262Z,6488
2017-09-27T11:17:36.444Z,6408
2017-09-27T11:18:08.625Z,6920
2017-09-27T11:18:40.718Z,7608
2017-09-27T11:19:12.795Z,7644
2017-09-27T11:19:44.920Z,7256
2017-09-27T11:20:17.044Z,6844
2017-09-27T11:20:49.108Z,6748
2017-09-27T11:21:21.317Z,6840
2017-09-27T11:21:53.482Z,7628
2017-09-27T11:22:25.730Z,6840
2017-09-27T11:22:57.829Z,6528
2017-09-27T11:23:30.834Z,6152
2017-09-27T11:24:02.886Z,5784
2017-09-27T11:24:34.998Z,5752
2017-09-27T11:25:07.236Z,5900
2017-09-27T11:25:39.406Z,5876
2017-09-27T11:26:11.590Z,5860
2017-09-27T11:26:43.768Z,5960
2017-09-27T11:27:15.940Z,6036
2017-09-27T11:27:48.821Z,6400
2017-09-27T11:28:20.957Z,6228
2017-09-27T11:28:53.106Z,6532
2017-09-27T11:29:25.302Z,6812
2017-09-27T11:29:57.490Z,6580
2017-09-27T11:30:29.620Z,6748
2017-09-27T11:31:01.733Z,6708
2017-09-27T11:31:33.799Z,6976
2017-09-27T11:32:05.963Z,7256
2017-09-27T11:32:38.066Z,7152
2017-09-27T11:33:10.208Z,6792
2017-09-27T11:33:42.342Z,6540
2017-09-27T11:34:14.546Z,6624
2017-09-27T11:34:46.667Z,6776
2017-09-27T11:35:18.840Z,6872
2017-09-27T11:35:50.936Z,6980
2017-09-27T11:36:23.113Z,7360
2017-09-27T11:36:55.251Z,6944
2017-09-27T11:37:27.406Z,6064
2017-09-27T11:37:59.560Z,5824
2017-09-27T11:38:31.678Z,5672
2017-09-27T11:39:03.996Z,5540
2017-09-27T11:39:36.080Z,5456
2017-09-27T11:40:08.236Z,5380
2017-09-27T11:40:40.397Z,5280
2017-09-27T11:41:12.685Z,5200
2017-09-27T11:41:44.898Z,5144
2017-09-27T11:42:17.142Z,5108
2017-09-27T11:42:49.245Z,5076
2017-09-27T11:43:21.443Z,5064
2017-09-27T11:43:54.436Z,5072
2017-09-27T11:44:26.610Z,5096
2017-09-27T11:44:58.697Z,5112
2017-09-27T11:45:30.778Z,5132
2017-09-27T11:46:02.945Z,5184
2017-09-27T11:46:35.174Z,5280
2017-09-27T11:47:07.337Z,5368
2017-09-27T11:47:39.475Z,5504
2017-09-27T11:48:11.698Z,5656
2017-09-27T11:48:43.829Z,5796
2017-09-27T11:49:15.889Z,5984
2017-09-27T11:49:48.137Z,6192
2017-09-27T11:50:20.249Z,6328
2017-09-27T11:50:52.444Z,6448
2017-09-27T11:51:24.500Z,6516
2017-09-27T11:51:56.545Z,6476
2017-09-27T11:52:28.673Z,6296
2017-09-27T11:53:00.882Z,6156
2017-09-27T11:53:32.999Z,6076
2017-09-27T11:54:05.115Z,5984
2017-09-27T11:54:37.196Z,5924
2017-09-27T11:55:09.415Z,5888
2017-09-27T11:55:41.537Z,6056
2017-09-27T11:56:13.742Z,6968
2017-09-27T11:56:45.957Z,6332
2017-09-27T11:57:18.091Z,6268
2017-09-27T11:57:50.249Z,7220
2017-09-27T11:58:22.361Z,7216
2017-09-27T11:58:54.495Z,7640
2017-09-27T11:59:26.566Z,7180
2017-09-27T11:59:58.678Z,9308
2017-09-27T12:00:30.713Z,8944
2017-09-27T12:01:02.805Z,8348
2017-09-27T12:01:34.930Z,8416
2017-09-27T12:02:07.039Z,8280
2017-09-27T12:02:39.189Z,8404
2017-09-27T12:03:11.384Z,8412
2017-09-27T12:03:43.549Z,7436
2017-09-27T12:04:15.747Z,7284
2017-09-27T12:04:47.937Z,8520
2017-09-27T12:05:20.108Z,8560
2017-09-27T12:05:52.250Z,7888
2017-09-27T12:06:24.533Z,8216
2017-09-27T12:06:56.880Z,7748
2017-09-27T12:07:28.962Z,10636
2017-09-27T12:08:01.095Z,9756
2017-09-27T12:08:33.238Z,8800
2017-09-27T12:09:05.407Z,8612
2017-09-27T12:09:37.586Z,8044
2017-09-27T12:10:09.829Z,7664
2017-09-27T12:10:41.973Z,8576
2017-09-27T12:11:14.140Z,11020
2017-09-27T12:11:46.300Z,12516
2017-09-27T12:12:18.610Z,13036
2017-09-27T12:12:50.796Z,13008
2017-09-27T12:13:22.935Z,11340
2017-09-27T12:13:55.174Z,8372
2017-09-27T12:14:27.305Z,7936
2017-09-27T12:14:59.437Z,8108
2017-09-27T12:15:31.588Z,10532
2017-09-27T12:16:03.619Z,12564
2017-09-27T12:16:35.761Z,10192
2017-09-27T12:17:07.904Z,13052
2017-09-27T12:17:40.201Z,12532
2017-09-27T12:18:12.400Z,12816
2017-09-27T12:18:44.512Z,13236
2017-09-27T12:19:16.627Z,13184
2017-09-27T12:19:48.729Z,12940
2017-09-27T12:20:20.850Z,12676
2017-09-27T12:20:53.031Z,12824
2017-09-27T12:21:25.236Z,12908
2017-09-27T12:21:57.380Z,13104
2017-09-27T12:22:29.482Z,13136
2017-09-27T12:23:01.639Z,13188
2017-09-27T12:23:33.798Z,13108
2017-09-27T12:24:05.945Z,13124
2017-09-27T12:24:38.090Z,13388
2017-09-27T12:25:10.199Z,13928
2017-09-27T12:25:42.376Z,13240
2017-09-27T12:26:14.479Z,13520
2017-09-27T12:26:46.787Z,14116
2017-09-27T12:27:19.100Z,13904
2017-09-27T12:27:51.356Z,10352
2017-09-27T12:28:23.557Z,8596
2017-09-27T12:28:55.770Z,7652
2017-09-27T12:29:27.967Z,8300
2017-09-27T12:30:00.168Z,10904
2017-09-27T12:30:32.406Z,13004
2017-09-27T12:31:04.640Z,21184
2017-09-27T12:31:36.827Z,31808
2017-09-27T12:32:09.058Z,31648
2017-09-27T12:32:41.147Z,41056
2017-09-27T12:33:13.345Z,24832
2017-09-27T12:33:45.645Z,25664
2017-09-27T12:34:18.914Z,41056
2017-09-27T12:34:51.061Z,25664
2017-09-27T12:35:24.370Z,13940
2017-09-27T12:35:56.950Z,7508
2017-09-27T12:36:31.631Z,7136
2017-09-27T12:37:05.770Z,16760
2017-09-27T12:37:38.200Z,39616
2017-09-27T12:38:10.388Z,26240
2017-09-27T12:38:42.583Z,42016
2017-09-27T12:39:14.727Z,38240
2017-09-27T12:39:46.845Z,40448
2017-09-27T12:40:19.069Z,38240
2017-09-27T12:40:51.231Z,38208
2017-09-27T12:41:23.456Z,37664
2017-09-27T12:41:55.675Z,37280
2017-09-27T12:42:27.879Z,37824
2017-09-27T12:43:00.038Z,36192
2017-09-27T12:43:32.129Z,36224
2017-09-27T12:44:04.618Z,37664
2017-09-27T12:44:36.891Z,36768
2017-09-27T12:45:09.135Z,31328
2017-09-27T12:45:41.276Z,23744
2017-09-27T12:46:13.502Z,18592
2017-09-27T12:46:45.803Z,17008
2017-09-27T12:47:18.017Z,16540
2017-09-27T12:47:50.128Z,16064
2017-09-27T12:48:22.284Z,15872
2017-09-27T12:48:54.471Z,16076
2017-09-27T12:49:26.715Z,16080
2017-09-27T12:49:58.855Z,15132
2017-09-27T12:50:31.101Z,15908
2017-09-27T12:51:03.288Z,15916
2017-09-27T12:51:35.468Z,16452
2017-09-27T12:52:07.572Z,19424
2017-09-27T12:52:39.677Z,25696
2017-09-27T12:53:12.025Z,32352
2017-09-27T12:53:44.179Z,36224
2017-09-27T12:54:16.377Z,21504
2017-09-27T12:54:48.606Z,37568
2017-09-27T12:55:20.746Z,38176
2017-09-27T12:55:52.981Z,40192
2017-09-27T12:56:25.090Z,37696
2017-09-27T12:56:57.349Z,38080
2017-09-27T12:57:29.601Z,38080
2017-09-27T12:58:01.907Z,37760
2017-09-27T12:58:34.268Z,37536
2017-09-27T12:59:06.428Z,37600
2017-09-27T12:59:38.961Z,37984
2017-09-27T13:00:11.087Z,38592
2017-09-27T13:00:43.241Z,38784
2017-09-27T13:01:15.370Z,40000
2017-09-27T13:01:47.727Z,40128
2017-09-27T13:02:19.970Z,39776
2017-09-27T13:02:52.902Z,40640
2017-09-27T13:03:26.536Z,40352
2017-09-27T13:03:59.755Z,40928
2017-09-27T13:04:32.445Z,42240
2017-09-27T13:05:04.515Z,40992
2017-09-27T13:05:37.158Z,37920
2017-09-27T13:06:09.386Z,36000
2017-09-27T13:06:41.462Z,32608
2017-09-27T13:07:13.748Z,40192
2017-09-27T13:07:45.935Z,38528
2017-09-27T13:08:18.335Z,38528
2017-09-27T13:08:50.651Z,37152
2017-09-27T13:09:22.888Z,36160
2017-09-27T13:09:55.032Z,39552
2017-09-27T13:10:27.192Z,39168
2017-09-27T13:11:00.094Z,39488
2017-09-27T13:11:34.824Z,40224
2017-09-27T13:12:07.832Z,39488
2017-09-27T13:12:40.064Z,40064
2017-09-27T13:13:12.213Z,30336
2017-09-27T13:13:45.127Z,24288
2017-09-27T13:14:17.402Z,8872
2017-09-27T13:14:49.683Z,9328
2017-09-27T13:15:21.848Z,26624
2017-09-27T13:15:53.973Z,15252
2017-09-27T13:16:26.117Z,10388
2017-09-27T13:16:58.414Z,13464
2017-09-27T13:17:30.625Z,17568
2017-09-27T13:18:02.778Z,34080
2017-09-27T13:18:35.008Z,17744
2017-09-27T13:19:07.175Z,11804
2017-09-27T13:19:39.330Z,10084
2017-09-27T13:20:11.492Z,10564
2017-09-27T13:20:43.693Z,23360
2017-09-27T13:21:15.797Z,17736
2017-09-27T13:21:48.073Z,17160
2017-09-27T13:22:20.298Z,11488
2017-09-27T13:22:52.440Z,19296
2017-09-27T13:23:24.619Z,11076
2017-09-27T13:23:56.857Z,20160
2017-09-27T13:24:28.989Z,44736
2017-09-27T13:25:01.264Z,40672
2017-09-27T13:25:33.409Z,41504
2017-09-27T13:26:05.563Z,41376
2017-09-27T13:26:37.779Z,33888
2017-09-27T13:27:09.936Z,29728